Time;durP1;ratioP1;P1;durP2;ratioP2;P2;SDS_P1;SDS_P2;PMS_P1;PMS_P2;Temp;Humidity;BMP_temperature;BMP_pressure;BME280_temperature;BME280_humidity;BME280_pressure;Samples;Min_cycle;Max_cycle;Signal;HPM_P1;HPM_P2
2021/12/06 00:01:30;;;;;;;10.27;6.28;;;3.10;99.90;;;;;;5011617;28;20023;-73
2021/12/06 00:04:17;;;;;;;9.90;6.15;;;3.10;99.90;;;;;;5013939;28;20052;-72
2021/12/06 00:06:53;;;;;;;8.18;5.25;;;3.10;99.90;;;;;;5005443;28;20111;-73
2021/12/06 00:09:25;;;;;;;7.85;4.95;;;3.10;99.90;;;;;;5002725;28;20037;-72
2021/12/06 00:12:01;;;;;;;9.32;5.88;;;3.10;99.90;;;;;;5007284;28;20026;-73
2021/12/06 00:14:29;;;;;;;9.73;5.38;;;3.10;99.90;;;;;;5013099;28;20026;-72
2021/12/06 00:16:58;;;;;;;7.63;4.70;;;3.10;99.90;;;;;;5009560;28;20097;-72
2021/12/06 00:19:28;;;;;;;7.88;5.25;;;3.00;99.90;;;;;;5011895;28;20060;-72
2021/12/06 00:21:57;;;;;;;10.05;5.45;;;3.00;99.90;;;;;;5008013;28;20032;-73
2021/12/06 00:24:29;;;;;;;9.63;5.28;;;3.00;99.90;;;;;;5024839;28;20033;-73
2021/12/06 00:27:01;;;;;;;7.57;4.57;;;3.00;99.90;;;;;;5006478;28;20026;-72
2021/12/06 00:29:28;;;;;;;8.32;5.50;;;3.00;99.90;;;;;;5013125;28;20609;-72
2021/12/06 00:31:54;;;;;;;;;;;3.00;99.90;;;;;;5002945;28;20057;-72
2021/12/06 00:34:22;;;;;;;6.18;4.28;;;3.00;99.90;;;;;;5011304;28;21414;-73
2021/12/06 00:37:15;;;;;;;7.05;4.15;;;2.90;99.90;;;;;;5005300;28;20628;-72
2021/12/06 00:39:51;;;;;;;6.43;4.00;;;2.90;99.90;;;;;;5004408;28;20021;-72
2021/12/06 00:42:22;;;;;;;5.10;3.42;;;2.90;99.90;;;;;;5010941;28;20168;-72
2021/12/06 00:44:51;;;;;;;6.03;3.47;;;2.90;99.90;;;;;;5005309;28;20052;-73
2021/12/06 00:47:18;;;;;;;6.95;3.47;;;2.90;99.90;;;;;;5010993;28;20049;-72
2021/12/06 00:49:47;;;;;;;6.97;4.18;;;2.80;99.90;;;;;;5016677;28;20036;-73
2021/12/06 00:52:14;;;;;;;5.20;3.28;;;2.90;99.90;;;;;;5009143;28;20017;-72
2021/12/06 00:54:40;;;;;;;4.38;3.22;;;2.80;99.90;;;;;;4996913;28;20029;-72
2021/12/06 00:57:08;;;;;;;6.07;3.60;;;2.80;99.90;;;;;;5008280;28;20040;-73
2021/12/06 00:59:35;;;;;;;5.32;3.53;;;2.80;99.90;;;;;;5007160;28;20021;-72
2021/12/06 01:02:01;;;;;;;4.47;3.08;;;2.80;99.90;;;;;;5007958;28;20814;-75
2021/12/06 01:04:30;;;;;;;3.83;2.85;;;2.80;99.90;;;;;;5008612;28;20777;-73
2021/12/06 01:06:56;;;;;;;4.35;2.78;;;2.80;99.90;;;;;;5023225;28;20112;-72
2021/12/06 01:09:21;;;;;;;5.10;3.23;;;2.70;99.90;;;;;;5009769;28;20116;-72
2021/12/06 01:11:47;;;;;;;4.03;2.67;;;2.70;99.90;;;;;;4999165;28;21546;-72
2021/12/06 01:14:14;;;;;;;3.87;2.33;;;2.70;99.90;;;;;;5008350;28;20017;-72
2021/12/06 01:16:41;;;;;;;2.92;2.25;;;2.70;99.90;;;;;;5005314;28;20018;-73
2021/12/06 01:19:07;;;;;;;3.67;2.30;;;2.70;99.90;;;;;;5027716;28;20057;-72
2021/12/06 01:21:53;;;;;;;2.43;1.90;;;2.70;99.90;;;;;;5002180;28;20118;-72
2021/12/06 01:24:26;;;;;;;3.00;1.92;;;2.70;99.90;;;;;;5007132;28;20160;-72
2021/12/06 01:29:58;;;;;;;2.38;1.90;;;2.70;99.90;;;;;;5006534;28;20056;-72
2021/12/06 01:40:22;;;;;;;3.88;2.17;;;2.70;99.90;;;;;;5009225;28;20036;-72
2021/12/06 01:42:52;;;;;;;4.20;2.85;;;2.70;99.90;;;;;;4998515;28;20022;-73
2021/12/06 01:45:18;;;;;;;4.20;3.10;;;2.60;99.90;;;;;;5012220;28;20034;-72
2021/12/06 01:47:46;;;;;;;5.13;2.83;;;2.60;99.90;;;;;;5006436;28;20021;-72
2021/12/06 01:50:28;;;;;;;4.18;3.03;;;2.50;99.90;;;;;;5008458;28;20025;-72
2021/12/06 01:52:58;;;;;;;4.82;2.78;;;2.50;99.90;;;;;;5003035;28;20034;-73
2021/12/06 01:55:33;;;;;;;5.20;3.20;;;2.50;99.90;;;;;;5011778;28;20504;-72
2021/12/06 01:58:03;;;;;;;4.85;3.25;;;2.60;99.90;;;;;;5008490;28;20041;-73
2021/12/06 02:00:31;;;;;;;5.18;2.88;;;2.60;99.90;;;;;;5007219;28;20026;-72
2021/12/06 02:02:58;;;;;;;3.72;2.72;;;2.60;99.90;;;;;;5005314;28;20881;-73
2021/12/06 02:05:24;;;;;;;4.80;2.95;;;2.60;99.90;;;;;;5004676;28;20056;-73
2021/12/06 02:07:52;;;;;;;4.63;3.05;;;2.60;99.90;;;;;;5002969;28;21051;-72
2021/12/06 02:10:20;;;;;;;5.15;3.30;;;2.60;99.90;;;;;;5022779;28;20034;-72
2021/12/06 02:12:48;;;;;;;5.55;3.10;;;2.60;99.90;;;;;;5003669;28;21444;-73
2021/12/06 02:15:41;;;;;;;4.72;3.10;;;2.60;99.90;;;;;;5010028;28;20018;-74
2021/12/06 02:18:26;;;;;;;5.18;3.10;;;2.70;99.90;;;;;;5006809;28;20017;-73
2021/12/06 02:21:01;;;;;;;6.25;3.08;;;2.70;99.90;;;;;;5021190;28;20187;-72
2021/12/06 02:23:27;;;;;;;4.68;3.60;;;2.60;99.90;;;;;;5010594;28;20894;-72
2021/12/06 02:25:59;;;;;;;5.13;3.78;;;2.60;99.90;;;;;;5003672;28;20061;-72
2021/12/06 02:28:25;;;;;;;6.28;3.88;;;2.60;99.90;;;;;;5005469;28;20040;-72
2021/12/06 02:30:52;;;;;;;9.10;3.70;;;2.60;99.90;;;;;;5005546;28;20041;-72
2021/12/06 02:33:21;;;;;;;7.50;4.57;;;2.70;99.90;;;;;;5011325;28;20096;-72
2021/12/06 02:35:47;;;;;;;6.20;3.90;;;2.70;99.90;;;;;;5003281;28;20101;-72
2021/12/06 02:38:14;;;;;;;7.03;4.07;;;2.70;99.90;;;;;;5006205;28;20108;-72
2021/12/06 02:40:42;;;;;;;5.65;3.97;;;2.70;99.90;;;;;;5007055;28;20109;-72
2021/12/06 02:43:11;;;;;;;7.60;4.18;;;2.70;99.90;;;;;;4994448;28;20026;-72
2021/12/06 02:45:39;;;;;;;8.70;5.18;;;2.60;99.90;;;;;;5006443;28;20022;-73
2021/12/06 02:48:07;;;;;;;8.38;4.93;;;2.60;99.90;;;;;;5004053;28;20365;-72
2021/12/06 02:50:39;;;;;;;8.90;5.82;;;2.60;99.90;;;;;;5010102;28;20083;-72
2021/12/06 02:53:05;;;;;;;8.10;4.85;;;2.70;99.90;;;;;;5008310;28;20037;-73
2021/12/06 02:55:36;;;;;;;9.02;5.05;;;2.70;99.90;;;;;;5007373;28;20026;-72
2021/12/06 02:59:11;;;;;;;8.43;5.30;;;2.70;99.90;;;;;;5006994;28;20014;-72
2021/12/06 03:01:26;;;;;;;7.32;4.82;;;2.70;99.90;;;;;;4998748;28;20483;-72
2021/12/06 03:03:54;;;;;;;9.55;5.38;;;2.70;99.90;;;;;;5007574;28;20045;-72
2021/12/06 03:06:20;;;;;;;9.95;5.88;;;2.70;99.90;;;;;;5002605;28;20778;-73
2021/12/06 03:08:53;;;;;;;9.20;5.75;;;2.70;99.90;;;;;;5021501;28;20041;-72
2021/12/06 03:11:29;;;;;;;7.88;5.03;;;2.70;99.90;;;;;;5017204;28;20539;-72
2021/12/06 03:13:57;;;;;;;10.80;6.25;;;2.70;99.90;;;;;;5011948;28;20068;-72
2021/12/06 03:16:24;;;;;;;8.80;5.95;;;2.70;99.90;;;;;;5020771;28;20029;-72
2021/12/06 03:18:55;;;;;;;10.88;6.75;;;2.70;99.90;;;;;;5026261;28;20144;-72
2021/12/06 03:21:22;;;;;;;10.73;6.25;;;2.70;99.90;;;;;;5017286;28;20154;-72
2021/12/06 03:23:48;;;;;;;11.80;7.40;;;2.70;99.90;;;;;;5011256;28;20028;-72
2021/12/06 03:26:14;;;;;;;11.57;7.10;;;2.70;99.90;;;;;;5000933;28;20460;-72
2021/12/06 03:28:44;;;;;;;10.77;6.72;;;2.70;99.90;;;;;;5010163;28;20064;-73
2021/12/06 03:31:11;;;;;;;12.65;7.28;;;2.70;99.90;;;;;;5010753;28;20033;-73
2021/12/06 03:33:41;;;;;;;11.70;7.10;;;2.70;99.90;;;;;;5014233;28;20084;-72
2021/12/06 03:36:09;;;;;;;12.00;7.80;;;2.70;99.90;;;;;;5006386;28;20076;-73
2021/12/06 03:38:37;;;;;;;14.43;7.72;;;2.70;99.90;;;;;;5008719;28;20038;-73
2021/12/06 03:41:05;;;;;;;13.57;8.18;;;2.70;99.90;;;;;;5002657;28;20762;-73
2021/12/06 03:43:31;;;;;;;11.75;7.43;;;2.70;99.90;;;;;;5014801;28;20032;-72
2021/12/06 03:45:57;;;;;;;13.65;7.20;;;2.70;99.90;;;;;;5010031;28;20487;-72
2021/12/06 03:48:23;;;;;;;10.90;7.40;;;2.70;99.90;;;;;;5006428;28;20083;-72
2021/12/06 03:50:49;;;;;;;13.60;7.93;;;2.70;99.90;;;;;;5012282;28;20058;-72
2021/12/06 03:53:17;;;;;;;13.97;8.27;;;2.70;99.90;;;;;;5004735;28;20077;-72
2021/12/06 03:55:44;;;;;;;12.15;7.07;;;2.70;99.90;;;;;;5009353;28;20022;-72
2021/12/06 03:58:09;;;;;;;;;;;2.70;99.90;;;;;;5005532;28;20626;-72
2021/12/06 04:00:35;;;;;;;16.13;8.27;;;2.70;99.90;;;;;;5012721;28;19973;-72
2021/12/06 04:03:01;;;;;;;14.47;8.40;;;2.70;99.90;;;;;;5012026;28;20026;-73
2021/12/06 04:05:28;;;;;;;16.03;9.20;;;2.70;99.90;;;;;;5010409;28;20022;-72
2021/12/06 04:07:55;;;;;;;15.50;8.63;;;2.70;99.90;;;;;;5010555;28;20026;-72
2021/12/06 04:10:25;;;;;;;15.85;8.50;;;2.70;99.90;;;;;;5006249;28;20997;-72
2021/12/06 04:12:55;;;;;;;14.00;8.35;;;2.70;99.90;;;;;;5013047;28;20056;-72
2021/12/06 04:15:25;;;;;;;17.95;8.93;;;2.70;99.90;;;;;;5009309;28;20518;-72
2021/12/06 04:17:51;;;;;;;17.42;9.55;;;2.80;99.90;;;;;;5013893;28;20063;-72
2021/12/06 04:20:18;;;;;;;15.15;9.25;;;2.80;99.90;;;;;;5004668;28;20030;-72
2021/12/06 04:22:45;;;;;;;15.32;8.77;;;2.80;99.90;;;;;;5024256;28;20411;-72
2021/12/06 04:25:16;;;;;;;15.85;9.88;;;2.80;99.90;;;;;;5004614;28;20734;-72
2021/12/06 04:27:43;;;;;;;19.73;9.82;;;2.80;99.90;;;;;;5012026;28;20423;-72
2021/12/06 04:30:11;;;;;;;16.75;9.68;;;2.80;99.90;;;;;;5020705;28;20075;-72
2021/12/06 04:32:38;;;;;;;15.52;9.05;;;2.80;99.90;;;;;;5006220;28;20056;-72
2021/12/06 04:35:05;;;;;;;14.65;9.27;;;2.80;99.90;;;;;;5007574;28;20025;-73
2021/12/06 04:37:31;;;;;;;21.20;9.90;;;2.80;99.90;;;;;;5013714;28;20049;-72
2021/12/06 04:39:57;;;;;;;15.03;9.17;;;2.80;99.90;;;;;;5010168;28;20164;-73
2021/12/06 04:42:24;;;;;;;16.58;10.13;;;2.80;99.90;;;;;;5024145;28;20543;-73
2021/12/06 04:44:51;;;;;;;16.10;9.65;;;2.80;99.90;;;;;;5005498;28;20038;-73
2021/12/06 04:47:19;;;;;;;;;;;2.80;99.90;;;;;;5004948;28;20047;-72
2021/12/06 04:49:44;;;;;;;19.15;9.10;;;2.80;99.90;;;;;;5009042;28;19919;-73
2021/12/06 04:52:13;;;;;;;16.90;10.10;;;2.90;99.90;;;;;;5023952;28;20029;-72
2021/12/06 04:54:45;;;;;;;20.30;10.55;;;2.90;99.90;;;;;;5009631;28;20025;-72
2021/12/06 04:57:22;;;;;;;15.38;9.32;;;2.90;99.90;;;;;;5005791;28;20049;-72
2021/12/06 04:59:55;;;;;;;17.33;9.63;;;2.80;99.90;;;;;;5006289;28;20018;-73
2021/12/06 05:02:30;;;;;;;17.88;9.40;;;2.80;99.90;;;;;;5004931;28;20032;-73
2021/12/06 05:04:59;;;;;;;18.05;9.38;;;2.80;99.90;;;;;;5007689;28;20090;-73
2021/12/06 05:07:32;;;;;;;15.25;8.20;;;2.80;99.90;;;;;;5009132;28;20105;-72
2021/12/06 05:09:58;;;;;;;15.23;8.90;;;2.80;99.90;;;;;;5008513;28;20084;-73
2021/12/06 05:12:28;;;;;;;18.27;9.20;;;2.80;99.90;;;;;;5007421;28;20109;-73
2021/12/06 05:14:55;;;;;;;16.73;8.70;;;2.80;99.90;;;;;;5008788;28;20060;-72
2021/12/06 05:17:31;;;;;;;21.20;9.50;;;2.80;99.90;;;;;;5007739;28;20030;-73
2021/12/06 05:19:58;;;;;;;15.95;8.15;;;2.80;99.90;;;;;;5009950;28;20053;-72
2021/12/06 05:22:29;;;;;;;24.67;9.20;;;2.80;99.90;;;;;;5000548;28;20506;-73
2021/12/06 05:24:55;;;;;;;14.73;9.38;;;2.90;99.90;;;;;;5027767;28;20029;-73
2021/12/06 05:27:27;;;;;;;16.83;9.90;;;2.80;99.90;;;;;;5000572;28;20095;-73
2021/12/06 05:29:57;;;;;;;19.48;9.15;;;2.90;99.90;;;;;;5008278;28;20022;-73
2021/12/06 05:32:27;;;;;;;18.05;10.05;;;2.80;99.90;;;;;;5001286;28;20022;-73
2021/12/06 05:35:02;;;;;;;18.98;10.13;;;2.80;99.90;;;;;;5005603;28;20494;-72
2021/12/06 05:37:28;;;;;;;18.13;8.63;;;2.90;99.90;;;;;;5011379;28;20830;-73
2021/12/06 05:39:55;;;;;;;16.48;9.70;;;2.80;99.90;;;;;;5007005;28;20482;-73
2021/12/06 05:42:22;;;;;;;17.13;9.45;;;2.90;99.90;;;;;;5000040;28;20034;-72
2021/12/06 05:44:49;;;;;;;16.13;9.35;;;2.80;99.90;;;;;;5011092;28;20018;-73
2021/12/06 05:47:16;;;;;;;17.58;9.25;;;2.80;99.90;;;;;;5004773;28;20026;-73
2021/12/06 05:49:47;;;;;;;;;;;2.80;99.90;;;;;;5012325;28;20129;-73
2021/12/06 05:52:13;;;;;;;22.40;9.95;;;2.80;99.90;;;;;;5005599;28;19912;-73
2021/12/06 05:54:39;;;;;;;15.57;8.47;;;2.80;99.90;;;;;;5008683;28;20018;-73
2021/12/06 05:57:07;;;;;;;16.47;9.20;;;2.80;99.90;;;;;;5005238;28;20014;-73
2021/12/06 05:59:34;;;;;;;16.95;8.90;;;2.80;99.90;;;;;;5009236;28;20018;-73
2021/12/06 06:01:59;;;;;;;;;;;2.80;99.90;;;;;;5005686;28;20499;-73
2021/12/06 06:04:27;;;;;;;17.33;9.85;;;2.80;99.90;;;;;;5003161;28;19928;-73
2021/12/06 06:06:57;;;;;;;17.42;8.70;;;2.80;99.90;;;;;;5006376;28;20080;-72
2021/12/06 06:09:26;;;;;;;16.67;9.02;;;2.70;99.90;;;;;;5003842;28;20024;-73
2021/12/06 06:11:52;;;;;;;16.65;9.00;;;2.80;99.90;;;;;;4996613;28;20061;-72
2021/12/06 06:14:18;;;;;;;17.00;8.73;;;2.80;99.90;;;;;;5009263;28;20935;-73
2021/12/06 06:16:48;;;;;;;17.15;8.48;;;2.80;99.90;;;;;;5001908;28;20025;-73
2021/12/06 06:19:17;;;;;;;17.20;9.00;;;2.70;99.90;;;;;;5010717;28;20383;-73
2021/12/06 06:21:44;;;;;;;14.95;7.90;;;2.70;99.90;;;;;;5001297;28;20018;-73
2021/12/06 06:24:10;;;;;;;;;;;2.70;99.90;;;;;;5011682;28;20022;-72
2021/12/06 06:26:38;;;;;;;15.52;8.50;;;2.80;99.90;;;;;;5024050;28;19911;-73
2021/12/06 06:29:06;;;;;;;15.52;8.52;;;2.80;99.90;;;;;;5007800;28;20471;-72
2021/12/06 06:31:34;;;;;;;16.20;9.32;;;2.70;99.90;;;;;;5012335;28;20075;-72
2021/12/06 06:34:11;;;;;;;16.27;8.57;;;2.80;99.90;;;;;;5006511;28;20029;-72
2021/12/06 06:36:36;;;;;;;19.45;8.68;;;2.80;99.90;;;;;;5007303;28;20093;-73
2021/12/06 06:39:06;;;;;;;18.50;9.53;;;2.80;99.90;;;;;;5004685;28;20101;-73
2021/12/06 06:41:35;;;;;;;17.73;9.32;;;2.80;99.90;;;;;;5007540;28;20390;-73
2021/12/06 06:44:01;;;;;;;20.05;9.45;;;2.80;99.90;;;;;;5008017;28;20051;-72
2021/12/06 06:46:28;;;;;;;15.52;9.10;;;2.80;99.90;;;;;;5005033;28;20029;-73
2021/12/06 06:48:57;;;;;;;18.75;9.57;;;2.80;99.90;;;;;;5001734;28;20382;-73
2021/12/06 06:51:27;;;;;;;19.35;10.38;;;2.80;99.90;;;;;;5009760;28;20042;-72
2021/12/06 06:53:55;;;;;;;23.05;9.98;;;2.80;99.90;;;;;;5007822;28;20049;-73
2021/12/06 06:56:21;;;;;;;19.85;9.05;;;2.80;99.90;;;;;;5022225;28;20116;-72
2021/12/06 06:58:48;;;;;;;16.27;8.37;;;2.90;99.90;;;;;;5006168;28;20056;-73
2021/12/06 07:01:13;;;;;;;;;;;3.00;99.90;;;;;;5018628;28;20025;-73
2021/12/06 07:03:41;;;;;;;15.55;8.35;;;3.00;99.90;;;;;;5004039;28;19905;-73
2021/12/06 07:06:08;;;;;;;18.50;8.82;;;3.00;99.90;;;;;;5008150;28;20087;-72
2021/12/06 07:08:34;;;;;;;;;;;3.00;99.90;;;;;;5009200;28;20113;-72
2021/12/06 07:11:00;;;;;;;17.80;8.40;;;3.10;99.90;;;;;;5009452;28;20000;-73
2021/12/06 07:13:28;;;;;;;16.23;9.35;;;3.10;99.90;;;;;;5015236;28;20783;-72
2021/12/06 07:15:56;;;;;;;15.10;7.88;;;3.00;99.90;;;;;;5021467;28;20114;-73
2021/12/06 07:18:22;;;;;;;15.82;8.90;;;3.10;99.90;;;;;;5025589;28;21467;-72
2021/12/06 07:20:49;;;;;;;19.30;9.17;;;3.00;99.90;;;;;;5022272;28;20033;-72
2021/12/06 07:23:15;;;;;;;15.23;8.55;;;3.00;99.90;;;;;;5005128;28;20100;-73
2021/12/06 07:25:41;;;;;;;19.23;8.50;;;3.00;99.90;;;;;;5026096;28;20080;-72
2021/12/06 07:28:09;;;;;;;16.73;8.60;;;3.00;99.90;;;;;;5012361;28;20029;-72
2021/12/06 07:30:36;;;;;;;18.40;9.65;;;3.10;99.90;;;;;;5013760;28;20349;-72
2021/12/06 07:33:03;;;;;;;;;;;3.10;99.90;;;;;;5011328;28;20110;-73
2021/12/06 07:35:31;;;;;;;16.60;9.40;;;3.00;99.90;;;;;;5023356;28;19962;-72
2021/12/06 07:38:00;;;;;;;18.33;9.13;;;3.10;99.90;;;;;;5014079;28;20479;-72
2021/12/06 07:40:27;;;;;;;15.95;9.05;;;3.10;99.90;;;;;;5007627;28;20026;-72
2021/12/06 07:42:53;;;;;;;15.60;8.43;;;3.10;99.90;;;;;;5010921;28;20037;-73
2021/12/06 07:45:20;;;;;;;17.03;9.17;;;3.10;99.90;;;;;;5006068;28;20044;-72
2021/12/06 07:47:46;;;;;;;;;;;3.10;99.90;;;;;;5012959;28;20433;-73
2021/12/06 07:50:15;;;;;;;17.02;9.65;;;3.10;99.90;;;;;;5018713;28;19905;-73
2021/12/06 07:52:41;;;;;;;15.32;8.90;;;3.20;99.90;;;;;;5027713;28;20029;-73
2021/12/06 07:55:11;;;;;;;17.70;10.07;;;3.20;99.90;;;;;;5008654;28;20050;-73
2021/12/06 07:57:44;;;;;;;21.48;9.73;;;3.20;99.90;;;;;;5011067;28;20016;-72
2021/12/06 08:00:17;;;;;;;19.13;9.98;;;3.30;99.90;;;;;;5009079;28;20025;-73
2021/12/06 08:02:44;;;;;;;20.13;9.77;;;3.30;99.90;;;;;;5008626;28;20032;-73
2021/12/06 08:08:17;;;;;;;18.13;9.85;;;3.40;99.90;;;;;;5011778;28;20446;-73
2021/12/06 08:10:56;;;;;;;17.75;9.82;;;3.50;99.90;;;;;;5010989;28;20471;-73
2021/12/06 08:13:29;;;;;;;20.75;11.00;;;3.40;99.90;;;;;;5010788;28;20033;-73
2021/12/06 08:16:00;;;;;;;19.83;10.02;;;3.50;99.90;;;;;;5007586;28;20080;-72
2021/12/06 08:18:27;;;;;;;20.33;10.68;;;3.60;99.90;;;;;;5020820;28;20079;-72
2021/12/06 08:20:54;;;;;;;18.65;9.85;;;3.60;99.90;;;;;;5010400;28;20025;-72
2021/12/06 08:23:20;;;;;;;18.40;10.57;;;3.60;99.90;;;;;;5009670;28;20038;-73
2021/12/06 08:25:50;;;;;;;20.85;10.82;;;3.70;99.90;;;;;;5008830;28;20061;-73
2021/12/06 08:28:20;;;;;;;19.83;10.43;;;3.70;99.90;;;;;;5000486;28;20045;-72
2021/12/06 08:30:47;;;;;;;18.02;9.75;;;3.70;99.90;;;;;;5013072;28;20030;-72
2021/12/06 08:33:14;;;;;;;18.58;9.45;;;3.80;99.90;;;;;;4999414;28;20050;-73
2021/12/06 08:35:45;;;;;;;22.08;10.52;;;3.80;99.90;;;;;;5006166;28;20022;-72
2021/12/06 08:38:15;;;;;;;19.83;9.75;;;3.90;99.90;;;;;;4999373;28;20100;-73
2021/12/06 08:40:44;;;;;;;18.65;9.55;;;3.90;99.90;;;;;;5024617;28;20025;-72
2021/12/06 08:43:16;;;;;;;17.48;9.68;;;3.90;99.90;;;;;;5009730;28;20109;-73
2021/12/06 08:45:50;;;;;;;23.27;11.90;;;4.00;99.90;;;;;;4999932;28;20033;-73
2021/12/06 08:48:16;;;;;;;29.33;15.77;;;4.10;99.90;;;;;;5011945;28;20025;-73
2021/12/06 08:50:42;;;;;;;23.70;13.07;;;4.10;99.90;;;;;;5001753;28;20037;-73
2021/12/06 08:53:08;;;;;;;17.77;9.27;;;4.20;99.90;;;;;;4998172;28;20030;-73
2021/12/06 08:55:34;;;;;;;18.83;8.83;;;4.30;99.90;;;;;;5010484;28;20018;-72
2021/12/06 08:58:03;;;;;;;18.13;9.60;;;4.30;99.90;;;;;;5011269;28;20112;-73
2021/12/06 09:00:35;;;;;;;15.60;8.75;;;4.40;99.90;;;;;;5008526;28;20022;-73
2021/12/06 09:03:04;;;;;;;18.60;10.23;;;4.40;99.90;;;;;;5008098;28;20025;-72
2021/12/06 09:05:36;;;;;;;15.73;8.40;;;4.40;99.90;;;;;;5006368;28;20389;-72
2021/12/06 09:08:03;;;;;;;14.80;8.85;;;4.40;99.90;;;;;;5005271;28;20110;-72
2021/12/06 09:10:30;;;;;;;;;;;4.40;99.90;;;;;;5005540;28;20022;-72
2021/12/06 09:12:59;;;;;;;15.10;8.25;;;4.40;99.90;;;;;;5009869;28;19909;-73
2021/12/06 09:15:25;;;;;;;16.02;8.52;;;4.40;99.90;;;;;;5010178;28;20637;-73
2021/12/06 09:17:54;;;;;;;14.48;8.57;;;4.50;99.90;;;;;;5023329;28;20022;-72
2021/12/06 09:20:23;;;;;;;16.23;9.38;;;4.50;99.90;;;;;;5018977;28;21851;-73
2021/12/06 09:22:50;;;;;;;16.77;9.48;;;4.60;99.90;;;;;;5008604;28;20034;-72
2021/12/06 09:25:24;;;;;;;18.42;8.50;;;4.60;99.90;;;;;;5005549;28;20644;-73
2021/12/06 09:27:51;;;;;;;16.52;7.80;;;4.70;99.90;;;;;;5003358;28;20656;-73
2021/12/06 09:30:22;;;;;;;14.85;8.40;;;4.90;99.90;;;;;;5019549;28;20021;-73
2021/12/06 09:32:49;;;;;;;14.88;8.55;;;5.10;99.90;;;;;;5008085;28;20494;-72
2021/12/06 09:35:22;;;;;;;18.00;10.02;;;5.30;99.90;;;;;;5007058;28;20100;-73
2021/12/06 09:37:49;;;;;;;18.33;8.82;;;5.40;99.00;;;;;;5010485;28;20052;-73
2021/12/06 09:40:17;;;;;;;;;;;5.30;99.30;;;;;;5007114;28;20013;-73
2021/12/06 09:42:45;;;;;;;14.05;7.78;;;5.40;99.80;;;;;;5027814;28;19911;-73
2021/12/06 09:45:19;;;;;;;13.73;8.35;;;5.30;99.40;;;;;;5006620;28;20088;-73
2021/12/06 09:47:51;;;;;;;15.70;9.35;;;5.30;99.80;;;;;;5018100;28;20053;-73
2021/12/06 09:50:24;;;;;;;17.25;8.30;;;5.40;99.20;;;;;;5019806;28;20040;-73
2021/12/06 09:52:58;;;;;;;15.93;8.65;;;5.30;99.20;;;;;;5010552;28;20399;-73
2021/12/06 09:55:29;;;;;;;17.15;8.90;;;5.30;99.10;;;;;;5014267;28;20977;-73
2021/12/06 09:57:55;;;;;;;15.13;8.00;;;5.30;99.40;;;;;;5013107;28;20077;-73
2021/12/06 10:00:25;;;;;;;13.65;8.32;;;5.30;99.20;;;;;;5006069;28;20030;-72
2021/12/06 10:02:53;;;;;;;16.63;8.60;;;5.60;99.60;;;;;;5009813;28;20021;-73
2021/12/06 10:05:26;;;;;;;17.63;8.32;;;5.70;98.20;;;;;;5006408;28;20030;-73
2021/12/06 10:07:54;;;;;;;14.68;8.82;;;5.70;98.60;;;;;;5012440;28;20056;-72
2021/12/06 10:10:21;;;;;;;12.77;7.80;;;5.80;98.70;;;;;;5018864;28;20075;-73
2021/12/06 10:12:56;;;;;;;13.38;7.78;;;6.00;98.40;;;;;;5007686;28;20033;-72
2021/12/06 10:15:28;;;;;;;17.58;8.77;;;6.10;98.20;;;;;;5017767;28;20025;-73
2021/12/06 10:17:59;;;;;;;15.45;8.57;;;6.20;97.40;;;;;;5005724;28;20105;-72
2021/12/06 10:20:27;;;;;;;16.23;8.25;;;6.20;97.20;;;;;;5000730;28;20620;-72
2021/12/06 10:22:54;;;;;;;16.75;7.78;;;6.40;97.00;;;;;;5005141;28;20096;-73
2021/12/06 10:25:35;;;;;;;12.88;8.00;;;6.60;96.30;;;;;;5006556;28;20029;-73
2021/12/06 10:28:03;;;;;;;14.60;8.48;;;6.50;96.50;;;;;;5006102;28;20045;-72
2021/12/06 10:30:42;;;;;;;11.40;7.60;;;6.40;96.50;;;;;;5003140;28;20617;-72
2021/12/06 10:33:16;;;;;;;15.02;8.30;;;6.30;96.50;;;;;;5005495;28;20034;-72
2021/12/06 10:35:50;;;;;;;16.50;9.57;;;6.10;96.90;;;;;;5009559;28;20025;-73
2021/12/06 10:38:26;;;;;;;14.55;8.45;;;6.00;97.40;;;;;;5000849;28;20021;-73
2021/12/06 10:40:58;;;;;;;12.68;8.50;;;5.90;97.90;;;;;;5006941;28;20020;-73
2021/12/06 10:43:26;;;;;;;19.50;9.30;;;5.80;98.20;;;;;;5006135;28;20067;-72
2021/12/06 10:45:54;;;;;;;21.17;12.05;;;5.70;97.80;;;;;;5007951;28;20556;-73
2021/12/06 10:48:25;;;;;;;16.55;9.32;;;5.50;98.80;;;;;;4999281;28;20034;-73
2021/12/06 10:50:51;;;;;;;20.20;10.50;;;5.50;99.20;;;;;;5022291;28;20619;-72
2021/12/06 10:53:27;;;;;;;18.87;10.07;;;5.40;99.50;;;;;;5004990;28;20062;-73
2021/12/06 10:55:56;;;;;;;14.60;8.67;;;5.40;99.10;;;;;;5012704;28;20026;-73
2021/12/06 10:58:26;;;;;;;16.38;8.32;;;5.30;98.90;;;;;;5007333;28;21381;-73
2021/12/06 11:00:56;;;;;;;16.00;8.15;;;5.20;99.60;;;;;;5024115;28;20022;-73
2021/12/06 11:03:29;;;;;;;13.25;8.25;;;5.20;99.60;;;;;;5001624;28;20044;-73
2021/12/06 11:06:03;;;;;;;17.00;9.05;;;5.10;99.90;;;;;;5010692;28;20100;-73
2021/12/06 11:08:34;;;;;;;16.23;9.00;;;5.20;99.90;;;;;;5007951;28;20104;-73
2021/12/06 11:11:08;;;;;;;18.05;9.60;;;5.20;99.90;;;;;;5007805;28;20080;-72
2021/12/06 11:13:38;;;;;;;17.40;9.48;;;5.10;99.90;;;;;;5000334;28;20021;-73
2021/12/06 11:16:15;;;;;;;16.42;9.35;;;5.10;99.90;;;;;;5000517;28;20065;-73
2021/12/06 11:18:52;;;;;;;14.55;9.00;;;5.00;99.90;;;;;;5004643;28;20013;-72
2021/12/06 11:21:46;;;;;;;15.25;9.25;;;5.00;99.90;;;;;;4998168;28;20022;-72
2021/12/06 11:24:20;;;;;;;15.00;8.75;;;4.90;99.90;;;;;;5001196;28;20041;-72
2021/12/06 11:27:01;;;;;;;16.05;8.88;;;4.90;99.90;;;;;;5006568;28;20179;-73
2021/12/06 11:29:34;;;;;;;18.58;9.00;;;4.90;99.90;;;;;;5000032;28;20049;-73
2021/12/06 11:32:20;;;;;;;17.55;8.95;;;5.00;99.90;;;;;;5019397;28;20034;-72
2021/12/06 11:34:55;;;;;;;14.95;8.43;;;5.00;99.90;;;;;;5006596;28;20018;-73
2021/12/06 11:37:46;;;;;;;18.40;9.50;;;5.00;99.90;;;;;;5000801;28;20021;-73
2021/12/06 11:40:27;;;;;;;14.20;8.30;;;5.00;99.90;;;;;;5022346;28;20017;-72
2021/12/06 11:43:08;;;;;;;21.88;10.85;;;5.00;99.90;;;;;;5021935;28;20025;-73
2021/12/06 11:45:46;;;;;;;16.00;8.48;;;4.90;99.90;;;;;;5004161;28;20795;-73
2021/12/06 11:48:22;;;;;;;16.10;8.68;;;4.90;99.90;;;;;;5022201;28;20695;-72
2021/12/06 11:51:13;;;;;;;17.02;9.35;;;4.80;99.90;;;;;;5011357;28;20105;-72
2021/12/06 11:53:42;;;;;;;16.48;9.50;;;4.80;99.90;;;;;;5006095;28;20426;-72
2021/12/06 11:56:18;;;;;;;16.40;9.15;;;4.80;99.90;;;;;;5009490;28;20032;-72
2021/12/06 11:58:57;;;;;;;15.05;8.15;;;4.70;99.90;;;;;;5008505;28;20025;-73
2021/12/06 12:01:31;;;;;;;16.88;9.48;;;4.70;99.90;;;;;;5007733;28;20036;-72
2021/12/06 12:04:01;;;;;;;14.23;8.77;;;4.70;99.90;;;;;;5015760;28;20100;-73
2021/12/06 12:06:32;;;;;;;15.95;8.35;;;4.70;99.90;;;;;;5020941;28;20038;-73
2021/12/06 12:09:18;;;;;;;15.85;8.50;;;4.70;99.90;;;;;;5012566;28;20509;-73
2021/12/06 12:12:15;;;;;;;16.85;8.23;;;4.80;99.90;;;;;;5026065;28;20105;-73
2021/12/06 12:14:58;;;;;;;13.75;7.25;;;5.00;99.90;;;;;;5010005;28;20025;-73
2021/12/06 12:17:32;;;;;;;18.23;7.63;;;5.00;99.90;;;;;;5014454;28;20128;-73
2021/12/06 12:20:03;;;;;;;16.90;8.20;;;5.10;99.90;;;;;;5006567;28;20017;-73
2021/12/06 12:22:38;;;;;;;12.63;6.97;;;5.00;99.90;;;;;;5008158;28;20546;-72
2021/12/06 12:25:09;;;;;;;13.75;6.65;;;5.10;99.90;;;;;;5011898;28;20112;-73
2021/12/06 12:27:50;;;;;;;11.30;7.15;;;5.00;99.90;;;;;;5008348;28;20670;-72
2021/12/06 12:30:16;;;;;;;10.25;6.15;;;5.00;99.90;;;;;;5011017;28;20037;-73
2021/12/06 12:32:42;;;;;;;14.05;6.65;;;5.00;99.90;;;;;;5011689;28;20025;-73
2021/12/06 12:35:11;;;;;;;9.80;6.20;;;5.00;99.60;;;;;;5011465;28;20052;-72
2021/12/06 12:37:39;;;;;;;9.82;6.00;;;4.90;99.90;;;;;;5006872;28;20113;-73
2021/12/06 12:40:05;;;;;;;14.18;6.43;;;4.90;99.90;;;;;;5028603;28;20014;-73
2021/12/06 12:42:32;;;;;;;11.60;6.27;;;4.80;99.90;;;;;;5008806;28;20890;-73
2021/12/06 12:45:00;;;;;;;10.35;6.10;;;4.80;99.90;;;;;;5013312;28;20041;-73
2021/12/06 12:47:34;;;;;;;11.25;6.35;;;4.80;99.90;;;;;;5023364;28;20108;-72
2021/12/06 12:50:14;;;;;;;15.80;6.93;;;4.80;99.90;;;;;;5010712;28;20136;-73
2021/12/06 12:52:48;;;;;;;12.18;6.10;;;4.80;99.70;;;;;;4999626;28;20026;-72
2021/12/06 12:55:48;;;;;;;11.95;6.88;;;4.80;99.90;;;;;;5022433;28;20577;-73
2021/12/06 12:58:20;;;;;;;12.15;6.32;;;4.90;99.90;;;;;;5009584;28;20064;-73
2021/12/06 13:00:48;;;;;;;12.13;6.20;;;4.90;99.90;;;;;;5003980;28;20022;-73
2021/12/06 13:03:31;;;;;;;10.48;5.43;;;4.90;99.90;;;;;;5013547;28;20087;-73
2021/12/06 13:06:37;;;;;;;9.40;5.47;;;5.00;99.50;;;;;;5008518;28;20083;-73
2021/12/06 13:09:07;;;;;;;10.52;5.47;;;5.00;99.90;;;;;;5009355;28;20040;-73
2021/12/06 13:11:55;;;;;;;9.52;4.75;;;5.00;98.10;;;;;;5007078;28;20148;-73
2021/12/06 13:14:30;;;;;;;8.90;5.00;;;5.00;97.70;;;;;;5007058;28;20337;-72
2021/12/06 13:17:03;;;;;;;9.57;4.40;;;5.00;96.80;;;;;;5011704;28;20483;-73
2021/12/06 13:19:49;;;;;;;9.32;4.25;;;5.00;97.00;;;;;;5022582;28;20033;-73
2021/12/06 13:22:19;;;;;;;8.07;4.35;;;5.00;96.40;;;;;;4999775;28;20010;-73
2021/12/06 13:24:50;;;;;;;13.77;4.95;;;4.90;96.90;;;;;;5005018;28;20033;-73